Timeline UpdatesTrip UpdatesNews PostsPvt Posts♥♥Travel TipsAdmin PostsConv PostsFollowed PostsChat RequestsBlog PostsPNR Posts

Disclaimer
Search
 
 
Sat Dec 20, 2014 04:15:30 ISTHomeTrainsΣChainsAtlasPNRForumGalleryNewsFAQTripsMembersLoginFeedback
PNR Super Search

Ticket PNR Status Inquiry - PNR: 475-xxxxxxx (E-Ticket)

OLD STATUS

Status Last Updated on: Jul 05 2012 (9:14AM) IST

Date of Journey: Fri Jul 06, 2012   Class: Sleeper - SL
Passenger 1: Can/Mod (Booking Status: W/L 9,PQWL)
Passenger 2: Can/Mod (Booking Status: W/L 10,PQWL)
Chart NOT Prepared

Yesvantpur-Howrah SF Express/12864

Travel Time: 14h 26m    14 halts    Distance: 772 km    Avg Speed: 53 km/hr
Type: SuperFast
Zone: SER/South Eastern
Departs @ 20:00 (Avg 18m late)
Platform# ???
SMTWTFS
Banaswadi/BAND 
Arrives @ 10:26 +1 night (Avg 41m late)
Platform# 3
SMTWTFS
Eluru/EE 

14 halts. 117 intermediate Stations between Banaswadi and Eluru

Show ALL intermediate Stations  Show Old Time-Table

#TrkCodeStation NameX/OArrivesAvgDepartsAvgHaltPFDay#KmSpeedElevZoneAddress
1%==%YPRYesvantpur Junction (6)  -19:35+761-14.839919mSWRBengaluru 560022, Karnataka
2/--/BANDBanaswadi (2)»  20:00 19:58+1720:02 20:00+182m--10.029912mSWRBangalore, Karnataka
3/==/KJMKrishnarajapuram (4)  20:10 20:13+2520:15+255 2m216.258909mSWRBengaluru-560016, Karnataka
4/==/BWTBangarapet Junction (6)X  21:15 21:13+1821:17 21:15+192m4162.668815mSWRBangarapet, Karnataka
5/==/KPNKuppam (2)  21:45+1721:47+162m--196.733688mSWRKuppam, Andhra Pradesh
6/==/JTJJolarpettai Junction (5)  23:00-123:05+35m11137.063405mSRJolarpettai, Tamil Nadu
7/==/KPDKatpadi Junction (5)X  00:25+100:30+95m32220.952213mSRVellore 632007, Tamil Nadu
8/--/TPTYTirupati Main (5)X  02:30+2002:35+205m12325.840150mSCRChittoor Distt, Andhra Pradesh
9/==/RURenigunta Junction (5)X  02:50+2803:00+3210m12335.843113mSCRChittoor District, Andhra Pradesh
10/==/GDRGudur Junction (3)X  04:55+905:00+75m22419.19219mSCRGudur, Andhra Pradesh
11/==/NLRNellore (4)  05:25+2205:26+231m22457.68121mSCRNellore, Andhra Pradesh
12/==/OGLOngole (3)X  06:52+3406:53+351m12574.48512mSCROngole, Andhra Pradesh
13/==/CLXChirala (4)X  07:28+4007:29+411m--2623.7908mSCRChirala, Andhra Pradesh
14/==/BPPBapatla (3)  07:40 07:39+4507:41 07:40+451m--2638.88210mSCRBapatla, Andhra Pradesh
15/==/TELTenali Junction (5)X  08:11+5108:12+521m42681.42616mSCRTel: 08644-227834, Andhra Pradesh
16/==/BZAVijayawada Junction (10)  09:25+1909:40+2315m72712.67724mSCRVijayawada 520001, Andhra Pradesh
17/==/EEEluru (3)•X  10:26+4110:27+421m32772.09019mSCREluru Ph.no. 08812 226401., Andhra Pradesh
18/==/TDDTadepalligudem (3)  11:00 10:59+4711:01 11:00+481m--2819.84218mSCRTadepalligudem, Andhra Pradesh
19/==/RJYRajahmundry (3)X  12:00+4112:05+395m32861.97923mSCRRajahmundry ph.no. 0883-2420541, Andhra Pradesh
20/==/SLOSamalkot Junction (3)X  12:43+4512:44+461m12912.14718mSCRSamalkot, Andhra Pradesh
21/==/VSKPVisakhapatnam Junction (8)X15:55+916:15+1120m321061.76711mECoRVishakhapatnam 530001, Andhra Pradesh
22/==/VZMVizianagaram Junction (5)  17:10+1917:12+202m221122.97963mECoRVizianagaram, Andhra Pradesh
23/==/CHESrikakulam Road (4)  18:05+1718:07+172m--21192.47234mECoRsrikakulam road ph .no. 08942-287222, Andhra Pradesh
24/==/PSAPalasa (3)X  19:08+1819:10+182m121265.48131mECoRKasibugga, Andhra Pradesh
25/==/BAMBrahmapur (3)  20:05+1920:10+195m121339.77427mECoRBerhampur, Odisha
26/==/BALUBalugaon (3)XO  21:12+1721:14+182m--21415.87611mECoR752030, Odisha
27/==/KURKhurda Road Junction (7)X  22:10+2322:20+2410m--21486.95725mECoRKhordha, Odisha
28/==/BBSBhubaneswar (4)X  22:45 22:40+3022:50 22:45+315m121505.85640mECoRBhubaneshwar, Odisha
29%==/CTCCuttack Junction (5)  23:15+3623:20+375m121533.78328mECoRCuttack, Odisha
30/==/JJKRJajpur Keonjhar Road (4)  00:10 00:12+4000:12 00:14+402m--31605.73536mECoRJajpur, Odisha
31/==/BHCBhadrak (4)X  01:28+801:30+92m--31649.38523mECoRBhadrak, Odisha
32/==/BLSBalasore (4)  02:14+2202:16+232m331711.87419mSERBalasore, Odisha
33/==/KGPKharagpur Junction (10)  03:50+1303:55+195m531827.97342mSERDist: West Medinipur, West Bengal
34/==/MCAMecheda (6)  04:45 04:42+3104:47 04:44+302m--31884.76810mSERdist - purba Medinipur, West Bengal
35/==/SRCKolkata Santragachi Junction (6)  05:29+005:30+01m431935.4117mSERDist: Howrah - 711104, West Bengal
36/==/HWHKolkata Howrah Junction (23)  06:10+17-1831942.9-10mERHowrah 711101, West Bengal
Scroll to Top
Scroll to Bottom


Go to Mobile site